createdAt,value
2018-12-23T00:01:01.595Z,9.60
2018-12-23T00:03:39.631Z,9.87
2018-12-23T00:06:12.896Z,9.88
2018-12-23T00:08:47.591Z,9.82
2018-12-23T00:11:25.463Z,9.75
2018-12-23T00:14:04.092Z,9.77
2018-12-23T00:16:42.064Z,9.71
2018-12-23T00:19:13.155Z,9.71
2018-12-23T00:21:52.904Z,9.66
2018-12-23T00:24:31.378Z,9.76
2018-12-23T00:27:10.023Z,9.83
2018-12-23T00:29:44.166Z,9.67
2018-12-23T00:32:14.160Z,9.76
2018-12-23T00:34:53.872Z,9.80
2018-12-23T00:37:31.694Z,9.63
2018-12-23T00:40:05.942Z,9.55
2018-12-23T00:42:37.313Z,9.65
2018-12-23T00:45:16.153Z,9.98
2018-12-23T00:47:54.730Z,9.53
2018-12-23T00:50:33.957Z,9.59
2018-12-23T00:53:03.924Z,9.79
2018-12-23T00:55:38.729Z,9.89
2018-12-23T00:58:10.578Z,9.69
2018-12-23T01:00:50.598Z,9.78
2018-12-23T01:03:28.865Z,9.77
2018-12-23T01:06:13.615Z,9.79
2018-12-23T01:08:47.145Z,9.70
2018-12-23T01:11:18.376Z,10.08
2018-12-23T01:13:57.059Z,9.63
2018-12-23T01:16:28.116Z,9.83
2018-12-23T01:18:57.849Z,9.79
2018-12-23T01:21:27.782Z,9.67
2018-12-23T01:24:05.529Z,9.76
2018-12-23T01:26:36.683Z,9.77
2018-12-23T01:29:08.298Z,9.82
2018-12-23T01:31:48.917Z,9.80
2018-12-23T01:34:27.545Z,9.81
2018-12-23T01:37:08.251Z,9.72
2018-12-23T01:39:39.679Z,9.70
2018-12-23T01:42:17.652Z,9.63
2018-12-23T01:44:56.606Z,9.50
2018-12-23T01:47:34.464Z,9.82
2018-12-23T01:50:05.912Z,9.53
2018-12-23T01:52:37.142Z,9.42
2018-12-23T01:55:15.757Z,9.58
2018-12-23T01:57:46.997Z,9.62
2018-12-23T02:00:24.989Z,9.82
2018-12-23T02:02:59.425Z,9.67
2018-12-23T02:05:45.886Z,9.80
2018-12-23T02:08:12.002Z,9.80
2018-12-23T02:10:50.532Z,9.51
2018-12-23T02:13:24.439Z,9.73
2018-12-23T02:16:09.583Z,9.45
2018-12-23T02:18:44.010Z,9.78
2018-12-23T02:21:17.906Z,9.34
2018-12-23T02:23:49.891Z,9.52
2018-12-23T02:26:20.935Z,9.44
2018-12-23T02:28:56.674Z,9.56
2018-12-23T02:31:28.600Z,9.49
2018-12-23T02:34:06.497Z,9.39
2018-12-23T02:36:44.648Z,9.57
2018-12-23T02:39:15.977Z,9.51
2018-12-23T02:41:47.694Z,9.61
2018-12-23T02:44:25.918Z,9.45
2018-12-23T02:47:00.104Z,9.33
2018-12-23T02:49:31.462Z,9.50
2018-12-23T02:52:02.483Z,9.75
2018-12-23T02:54:41.264Z,9.73
2018-12-23T02:57:12.632Z,9.91
2018-12-23T02:59:51.572Z,9.67
2018-12-23T03:02:29.544Z,9.40
2018-12-23T03:05:00.613Z,9.36
2018-12-23T03:07:34.434Z,9.20
2018-12-23T03:10:07.836Z,9.25
2018-12-23T03:12:37.765Z,9.24
2018-12-23T03:15:17.456Z,9.21
2018-12-23T03:17:48.717Z,9.39
2018-12-23T03:20:26.641Z,9.37
2018-12-23T03:25:57.925Z,9.60
2018-12-23T03:28:29.882Z,9.35
2018-12-23T03:31:01.321Z,9.23
2018-12-23T03:33:39.858Z,9.26
2018-12-23T03:36:20.448Z,9.39
2018-12-23T03:38:51.898Z,9.48
2018-12-23T03:41:29.829Z,9.35
2018-12-23T03:44:08.977Z,9.42
2018-12-23T03:46:46.726Z,9.45
2018-12-23T03:49:18.690Z,9.56
2018-12-23T03:51:53.665Z,9.38
2018-12-23T03:54:27.585Z,9.29
2018-12-23T03:57:07.363Z,9.20
2018-12-23T03:59:38.696Z,9.14
2018-12-23T04:02:10.873Z,9.23
2018-12-23T04:04:49.748Z,8.96
2018-12-23T04:07:21.063Z,9.11
2018-12-23T04:09:53.909Z,9.05
2018-12-23T04:12:32.439Z,9.10
2018-12-23T04:17:57.021Z,9.06
2018-12-23T04:20:35.701Z,9.14
2018-12-23T04:23:06.710Z,9.33
2018-12-23T04:25:44.424Z,9.27
2018-12-23T04:28:16.605Z,9.11
2018-12-23T04:30:54.942Z,9.41
2018-12-23T04:33:24.408Z,9.12
2018-12-23T04:36:03.019Z,9.24
2018-12-23T04:38:34.196Z,9.26
2018-12-23T04:41:04.199Z,9.39
2018-12-23T04:43:42.805Z,9.52
2018-12-23T04:46:25.160Z,9.30
2018-12-23T04:48:59.521Z,9.17
2018-12-23T04:51:40.158Z,9.14
2018-12-23T04:54:19.477Z,9.11
2018-12-23T04:56:50.619Z,9.10
2018-12-23T04:59:25.170Z,9.03
2018-12-23T05:01:56.202Z,9.21
2018-12-23T05:04:34.134Z,9.06
2018-12-23T05:07:17.437Z,9.19
2018-12-23T05:09:49.405Z,9.20
2018-12-23T05:12:29.241Z,9.18
2018-12-23T05:15:07.901Z,9.12
2018-12-23T05:20:32.481Z,8.98
2018-12-23T05:23:03.499Z,9.28
2018-12-23T05:25:41.569Z,9.15
2018-12-23T05:28:13.198Z,9.15
2018-12-23T05:30:53.258Z,9.23
2018-12-23T05:33:33.054Z,9.42
2018-12-23T05:36:11.338Z,9.36
2018-12-23T05:38:44.069Z,9.26
2018-12-23T05:41:22.062Z,9.36
2018-12-23T05:44:01.859Z,9.33
2018-12-23T05:46:40.387Z,9.37
2018-12-23T05:49:14.191Z,9.20
2018-12-23T05:51:52.765Z,9.24
2018-12-23T05:54:26.731Z,9.05
2018-12-23T05:57:05.696Z,9.22
2018-12-23T05:59:35.110Z,9.09
2018-12-23T06:02:07.436Z,9.13
2018-12-23T06:04:45.268Z,9.12
2018-12-23T06:07:19.258Z,9.28
2018-12-23T06:09:53.076Z,9.07
2018-12-23T06:12:27.015Z,9.20
2018-12-23T06:15:05.689Z,9.47
2018-12-23T06:17:40.019Z,9.19
2018-12-23T06:20:13.847Z,9.22
2018-12-23T06:22:45.100Z,9.42
2018-12-23T06:25:16.350Z,9.33
2018-12-23T06:27:54.968Z,9.45
2018-12-23T06:30:32.707Z,9.39
2018-12-23T06:33:06.571Z,9.42
2018-12-23T06:35:45.177Z,9.32
2018-12-23T06:38:19.023Z,9.61
2018-12-23T06:40:58.092Z,9.59
2018-12-23T06:43:31.923Z,9.26
2018-12-23T06:46:11.745Z,9.48
2018-12-23T06:48:41.733Z,9.45
2018-12-23T06:51:22.237Z,9.45
2018-12-23T06:54:00.220Z,9.55
2018-12-23T06:56:29.742Z,9.58
2018-12-23T06:59:08.473Z,9.60
2018-12-23T07:01:46.292Z,9.49
2018-12-23T07:04:17.532Z,9.63
2018-12-23T07:06:49.350Z,9.49
2018-12-23T07:09:21.113Z,9.54
2018-12-23T07:11:51.075Z,9.46
2018-12-23T07:14:28.984Z,9.59
2018-12-23T07:17:06.990Z,9.68
2018-12-23T07:19:38.648Z,9.66
2018-12-23T07:22:16.653Z,9.45
2018-12-23T07:24:55.634Z,9.51
2018-12-23T07:27:25.185Z,9.59
2018-12-23T07:29:56.103Z,9.49
2018-12-23T07:32:34.737Z,9.58
2018-12-23T07:35:12.717Z,9.54
2018-12-23T07:37:46.928Z,9.59
2018-12-23T07:40:18.994Z,9.71
2018-12-23T07:42:49.862Z,9.66
2018-12-23T07:45:28.224Z,9.79
2018-12-23T07:48:00.524Z,9.71
2018-12-23T07:50:39.052Z,9.64
2018-12-23T07:53:17.843Z,9.58
2018-12-23T07:55:55.684Z,9.60
2018-12-23T07:58:26.997Z,9.74
2018-12-23T08:01:05.829Z,9.63
2018-12-23T08:03:44.351Z,9.69
2018-12-23T08:06:23.489Z,9.59
2018-12-23T08:08:57.738Z,9.69
2018-12-23T08:11:36.370Z,9.69
2018-12-23T08:14:15.300Z,9.82
2018-12-23T08:16:49.397Z,9.77
2018-12-23T08:19:20.424Z,9.88
2018-12-23T08:21:59.315Z,9.73
2018-12-23T08:24:33.357Z,9.85
2018-12-23T08:27:12.028Z,9.93
2018-12-23T08:29:44.361Z,9.92
2018-12-23T08:32:23.138Z,9.84
2018-12-23T08:35:02.068Z,9.82
2018-12-23T08:37:44.584Z,9.99
2018-12-23T08:40:20.236Z,9.96
2018-12-23T08:42:55.466Z,9.99
2018-12-23T08:45:34.600Z,9.99
2018-12-23T08:48:05.886Z,10.00
2018-12-23T08:50:43.722Z,10.03
2018-12-23T08:53:17.789Z,9.90
2018-12-23T08:55:55.682Z,9.95
2018-12-23T08:58:27.034Z,10.07
2018-12-23T09:00:57.965Z,10.11
2018-12-23T09:03:35.802Z,10.03
2018-12-23T09:06:09.923Z,9.93
2018-12-23T09:08:41.197Z,10.04
2018-12-23T09:11:10.730Z,10.02
2018-12-23T09:13:43.753Z,10.08
2018-12-23T09:16:13.531Z,10.02
2018-12-23T09:18:45.618Z,10.11
2018-12-23T09:21:24.196Z,10.10
2018-12-23T09:24:02.031Z,10.13
2018-12-23T09:26:33.608Z,10.16
2018-12-23T09:29:10.172Z,10.09
2018-12-23T09:31:47.994Z,10.16
2018-12-23T09:34:21.908Z,10.07
2018-12-23T09:36:59.604Z,10.09
2018-12-23T09:39:33.731Z,10.13
2018-12-23T09:42:13.461Z,10.12
2018-12-23T09:44:43.131Z,10.21
2018-12-23T09:47:13.053Z,10.45
2018-12-23T09:49:45.323Z,10.27
2018-12-23T09:52:23.694Z,10.22
2018-12-23T09:54:54.309Z,10.25
2018-12-23T09:57:28.611Z,10.18
2018-12-23T10:00:00.841Z,10.11
2018-12-23T10:02:39.067Z,10.26
2018-12-23T10:05:19.381Z,10.22
2018-12-23T10:07:53.694Z,10.21
2018-12-23T10:10:28.481Z,10.17
2018-12-23T10:12:59.791Z,10.10
2018-12-23T10:15:31.636Z,10.22
2018-12-23T10:18:02.996Z,10.25
2018-12-23T10:20:34.239Z,10.17
2018-12-23T10:23:05.392Z,10.19
2018-12-23T10:25:37.459Z,10.31
2018-12-23T10:28:08.510Z,10.21
2018-12-23T10:30:46.996Z,10.19
2018-12-23T10:33:26.100Z,10.41
2018-12-23T10:35:58.051Z,10.50
2018-12-23T10:38:30.293Z,10.37
2018-12-23T10:41:09.079Z,10.30
2018-12-23T10:43:44.206Z,10.35
2018-12-23T10:46:25.951Z,10.40
2018-12-23T10:48:57.516Z,10.26
2018-12-23T10:51:31.693Z,10.42
2018-12-23T10:54:05.705Z,10.19
2018-12-23T10:56:37.271Z,10.30
2018-12-23T10:59:09.028Z,10.21
2018-12-23T11:01:49.759Z,10.08
2018-12-23T11:04:21.220Z,10.16
2018-12-23T11:07:00.064Z,10.09
2018-12-23T11:09:31.712Z,9.98
2018-12-23T11:12:09.460Z,10.10
2018-12-23T11:14:39.141Z,10.25
2018-12-23T11:17:08.995Z,10.01
2018-12-23T11:19:38.977Z,10.17
2018-12-23T11:22:10.028Z,10.11
2018-12-23T11:24:48.570Z,9.91
2018-12-23T11:27:22.511Z,10.05
2018-12-23T11:29:55.906Z,10.10
2018-12-23T11:32:25.905Z,9.92
2018-12-23T11:35:05.212Z,10.11
2018-12-23T11:37:42.960Z,9.92
2018-12-23T11:43:13.913Z,10.22
2018-12-23T11:45:53.109Z,10.10
2018-12-23T11:48:25.121Z,9.82
2018-12-23T11:51:06.765Z,10.01
2018-12-23T11:53:45.499Z,10.17
2018-12-23T11:56:25.510Z,10.03
2018-12-23T11:58:56.949Z,9.97
2018-12-23T12:01:27.026Z,9.84
2018-12-23T12:03:56.873Z,9.96
2018-12-23T12:06:29.818Z,9.98
2018-12-23T12:09:06.917Z,9.83
2018-12-23T12:11:34.074Z,9.83
2018-12-23T12:14:12.685Z,9.80
2018-12-23T12:16:53.343Z,9.68
2018-12-23T12:19:25.100Z,9.80
2018-12-23T12:22:03.986Z,9.69
2018-12-23T12:24:41.884Z,9.62
2018-12-23T12:27:20.015Z,9.56
2018-12-23T12:29:54.305Z,9.72
2018-12-23T12:32:25.391Z,9.76
2018-12-23T12:35:04.134Z,9.69
2018-12-23T12:37:35.358Z,9.75
2018-12-23T12:40:05.552Z,9.66
2018-12-23T12:42:39.819Z,9.89
2018-12-23T12:45:20.400Z,9.94
2018-12-23T12:47:54.731Z,9.71
2018-12-23T12:50:32.688Z,9.65
2018-12-23T12:53:04.253Z,9.79
2018-12-23T12:55:44.510Z,9.61
2018-12-23T12:58:16.362Z,9.71
2018-12-23T13:00:56.784Z,9.76
2018-12-23T13:03:35.219Z,9.58
2018-12-23T13:06:13.417Z,9.75
2018-12-23T13:08:44.833Z,9.86
2018-12-23T13:11:20.079Z,9.70
2018-12-23T13:13:59.206Z,9.92
2018-12-23T13:16:38.638Z,9.96
2018-12-23T13:19:10.826Z,9.83
2018-12-23T13:21:50.222Z,9.94
2018-12-23T13:24:29.332Z,10.15
2018-12-23T13:27:08.445Z,9.89
2018-12-23T13:29:41.749Z,9.88
2018-12-23T13:32:19.594Z,9.91
2018-12-23T13:34:53.982Z,9.97
2018-12-23T13:37:33.729Z,9.86
2018-12-23T13:40:11.177Z,9.90
2018-12-23T13:46:35.268Z,10.07
2018-12-23T13:49:44.713Z,9.81
2018-12-23T13:52:52.761Z,9.69
2018-12-23T13:55:59.695Z,9.59
2018-12-23T13:59:07.752Z,9.63
2018-12-23T14:02:15.879Z,9.78
2018-12-23T14:05:24.121Z,9.93
2018-12-23T14:08:32.173Z,10.05
2018-12-23T14:11:41.571Z,10.17
2018-12-23T14:14:10.917Z,9.94
2018-12-23T14:16:59.678Z,9.69
2018-12-23T14:19:29.108Z,9.68
2018-12-23T14:21:58.547Z,9.81
2018-12-23T14:24:27.924Z,9.60
2018-12-23T14:26:57.365Z,9.59
2018-12-23T14:29:26.874Z,9.85
2018-12-23T14:32:15.831Z,9.89
2018-12-23T14:34:45.555Z,9.68
2018-12-23T14:37:14.926Z,9.63
2018-12-23T14:39:44.282Z,9.84
2018-12-23T14:42:32.989Z,9.78
2018-12-23T14:45:02.425Z,9.87
2018-12-23T14:50:26.197Z,9.73
2018-12-23T14:52:55.633Z,9.79
2018-12-23T14:55:44.321Z,9.64
2018-12-23T15:04:41.666Z,9.95
2018-12-23T15:07:30.511Z,9.81
2018-12-23T15:10:19.189Z,10.05
2018-12-23T15:12:48.687Z,9.78
2018-12-23T15:15:37.476Z,9.94
2018-12-23T15:18:06.984Z,9.96
2018-12-23T15:27:04.579Z,9.88
2018-12-23T15:29:34.225Z,9.73
2018-12-23T15:32:03.607Z,9.70
2018-12-23T15:34:32.972Z,9.75
2018-12-23T15:40:17.215Z,9.66
2018-12-23T15:42:46.739Z,9.63
2018-12-23T15:45:16.121Z,9.63
2018-12-23T15:47:45.651Z,9.68
2018-12-23T15:50:34.523Z,9.75
2018-12-23T15:53:03.894Z,9.78
2018-12-23T15:55:33.346Z,9.53
2018-12-23T16:01:11.699Z,9.59
2018-12-23T16:03:41.052Z,9.40
2018-12-23T16:06:29.923Z,9.25
2018-12-23T16:09:18.762Z,9.55
2018-12-23T16:11:48.190Z,9.52
2018-12-23T16:14:36.977Z,9.50
2018-12-23T16:17:06.353Z,9.47
2018-12-23T16:19:55.071Z,9.41
2018-12-23T16:22:24.470Z,9.29
2018-12-23T16:24:53.829Z,9.40
2018-12-23T16:27:23.206Z,9.23
2018-12-23T16:29:52.703Z,9.20
2018-12-23T16:35:56.292Z,9.39
2018-12-23T16:38:25.701Z,9.36
2018-12-23T16:41:14.416Z,9.56
2018-12-23T16:46:38.197Z,9.59
2018-12-23T16:49:07.594Z,9.46
2018-12-23T16:52:17.194Z,9.67
2018-12-23T16:54:46.605Z,9.64
2018-12-23T16:57:15.970Z,9.50
2018-12-23T16:59:45.462Z,9.36
2018-12-23T17:02:34.172Z,9.51
2018-12-23T17:05:03.669Z,9.42
2018-12-23T17:07:33.062Z,9.61
2018-12-23T17:10:08.206Z,9.43
2018-12-23T17:13:04.521Z,9.58
2018-12-23T17:15:33.956Z,9.45
2018-12-23T17:18:03.407Z,9.46
2018-12-23T17:20:32.922Z,9.32
2018-12-23T17:23:02.986Z,9.67
2018-12-23T17:25:32.430Z,9.46
2018-12-23T17:30:57.530Z,9.48
2018-12-23T17:36:40.644Z,9.41
2018-12-23T17:39:10.364Z,9.37
2018-12-23T17:41:39.727Z,9.57
2018-12-23T17:47:36.655Z,9.72
2018-12-23T17:50:46.344Z,9.74
2018-12-23T17:53:15.744Z,9.88
2018-12-23T17:56:04.592Z,9.70
2018-12-23T17:58:33.937Z,9.73
2018-12-23T18:01:03.353Z,9.60
2018-12-23T18:03:52.052Z,9.66
2018-12-23T18:06:40.741Z,9.72
2018-12-23T18:09:10.120Z,9.81
2018-12-23T18:11:39.464Z,9.65
2018-12-23T18:14:08.816Z,9.70
2018-12-23T18:16:38.165Z,9.81
2018-12-23T18:19:07.527Z,9.79
2018-12-23T18:21:56.202Z,9.48
2018-12-23T18:24:25.560Z,9.78
2018-12-23T18:26:55.136Z,9.84
2018-12-23T18:29:43.863Z,9.98
2018-12-23T18:32:13.197Z,9.94
2018-12-23T18:35:01.913Z,9.82
2018-12-23T18:40:58.332Z,9.88
2018-12-23T18:43:46.999Z,9.88
2018-12-23T18:46:35.712Z,9.93
2018-12-23T18:49:24.405Z,9.92
2018-12-23T18:51:53.775Z,9.87
2018-12-23T18:54:23.107Z,9.89
2018-12-23T18:57:11.820Z,9.92
2018-12-23T19:00:00.504Z,9.92
2018-12-23T19:03:09.916Z,9.90
2018-12-23T19:05:39.251Z,9.87
2018-12-23T19:08:08.688Z,9.77
2018-12-23T19:11:18.078Z,9.93
2018-12-23T19:17:58.744Z,9.91
2018-12-23T19:21:06.799Z,9.90
2018-12-23T19:24:14.867Z,9.98
2018-12-23T19:27:24.327Z,10.01
2018-12-23T19:30:33.785Z,9.91
2018-12-23T19:33:43.205Z,9.91
2018-12-23T19:36:52.722Z,9.87
2018-12-23T19:40:00.767Z,9.68
2018-12-23T19:43:10.177Z,9.71
2018-12-23T19:46:19.580Z,9.66
2018-12-23T19:49:27.638Z,9.88
2018-12-23T19:52:35.708Z,9.66
2018-12-23T19:55:43.784Z,9.48
2018-12-23T19:58:53.187Z,9.38
2018-12-23T20:02:02.594Z,9.54
2018-12-23T20:05:10.665Z,9.35
2018-12-23T20:08:20.074Z,9.49
2018-12-23T20:11:28.501Z,9.28
2018-12-23T20:14:37.921Z,9.35
2018-12-23T20:17:47.440Z,9.17
2018-12-23T20:20:55.618Z,9.13
2018-12-23T20:24:05.140Z,9.10
2018-12-23T20:27:13.332Z,8.92
2018-12-23T20:30:22.712Z,9.11
2018-12-23T20:33:30.784Z,8.79
2018-12-23T20:36:39.077Z,8.92
2018-12-23T20:39:48.699Z,9.06
2018-12-23T20:42:58.183Z,8.68
2018-12-23T20:46:07.634Z,8.72
2018-12-23T20:49:15.705Z,8.61
2018-12-23T20:52:25.183Z,8.49
2018-12-23T20:55:34.615Z,8.56
2018-12-23T20:58:44.024Z,8.44
2018-12-23T21:01:52.076Z,8.57
2018-12-23T21:05:00.473Z,8.70
2018-12-23T21:08:09.966Z,8.78
2018-12-23T21:11:21.158Z,8.82
2018-12-23T21:14:02.860Z,8.96
2018-12-23T21:17:10.949Z,8.98
2018-12-23T21:20:19.006Z,8.79
2018-12-23T21:23:27.043Z,8.77
2018-12-23T21:26:36.477Z,9.03
2018-12-23T21:32:33.955Z,9.03
2018-12-23T21:35:43.419Z,8.88
2018-12-23T21:38:51.499Z,8.77
2018-12-23T21:44:48.793Z,8.36
2018-12-23T21:47:58.173Z,8.43
2018-12-23T21:51:06.245Z,8.23
2018-12-23T21:54:15.840Z,8.02
2018-12-23T21:57:23.900Z,8.28
2018-12-23T22:00:32.125Z,8.01
2018-12-23T22:03:40.177Z,8.10
2018-12-23T22:06:48.331Z,8.23
2018-12-23T22:09:56.484Z,8.08
2018-12-23T22:13:05.866Z,8.05
2018-12-23T22:15:55.170Z,8.35
2018-12-23T22:18:24.485Z,8.13
2018-12-23T22:20:53.830Z,7.98
2018-12-23T22:23:23.343Z,8.24
2018-12-23T22:25:52.769Z,8.04
2018-12-23T22:28:41.653Z,8.10
2018-12-23T22:31:11.005Z,7.89
2018-12-23T22:33:59.738Z,7.86
2018-12-23T22:36:29.084Z,7.88
2018-12-23T22:42:11.595Z,7.95
2018-12-23T22:45:00.316Z,8.00
2018-12-23T22:47:29.718Z,7.71
2018-12-23T22:49:59.218Z,7.69
2018-12-23T22:52:28.562Z,7.89
2018-12-23T22:57:36.235Z,7.92
2018-12-23T23:00:28.118Z,8.06
2018-12-23T23:02:57.715Z,7.90
2018-12-23T23:05:27.046Z,7.83
2018-12-23T23:08:10.343Z,7.87
2018-12-23T23:11:05.985Z,7.88
2018-12-23T23:13:35.352Z,7.86
2018-12-23T23:16:24.066Z,7.74
2018-12-23T23:18:53.481Z,7.71
2018-12-23T23:21:22.824Z,7.88
2018-12-23T23:23:52.246Z,7.88
2018-12-23T23:26:21.600Z,7.89
2018-12-23T23:31:44.608Z,7.67
2018-12-23T23:40:21.815Z,7.45
2018-12-23T23:42:51.131Z,7.59
2018-12-23T23:45:20.474Z,7.48
2018-12-23T23:48:09.217Z,7.38
2018-12-23T23:50:38.551Z,7.51
2018-12-23T23:53:27.257Z,7.49
2018-12-23T23:55:56.607Z,7.39
2018-12-23T23:58:25.961Z,7.16
